createdAt,value
2022-10-22T00:01:14.120Z,19.61
2022-10-22T00:03:40.354Z,19.61
2022-10-22T00:06:07.083Z,19.61
2022-10-22T00:08:33.443Z,19.62
2022-10-22T00:10:59.772Z,19.62
2022-10-22T00:13:26.215Z,19.63
2022-10-22T00:15:52.487Z,19.64
2022-10-22T00:18:18.760Z,19.66
2022-10-22T00:20:45.198Z,19.67
2022-10-22T00:23:11.592Z,19.68
2022-10-22T00:25:37.952Z,19.68
2022-10-22T00:28:04.285Z,19.68
2022-10-22T00:30:30.826Z,19.70
2022-10-22T00:32:57.071Z,19.69
2022-10-22T00:35:23.429Z,19.68
2022-10-22T00:37:49.652Z,19.70
2022-10-22T00:40:15.913Z,19.70
2022-10-22T00:42:42.700Z,19.70
2022-10-22T00:45:09.306Z,19.70
2022-10-22T00:47:37.510Z,19.71
2022-10-22T00:50:05.624Z,19.71
2022-10-22T00:52:32.417Z,19.72
2022-10-22T00:55:00.349Z,19.73
2022-10-22T00:57:27.401Z,19.73
2022-10-22T00:59:54.277Z,19.75
2022-10-22T01:02:21.005Z,19.76
2022-10-22T01:04:47.227Z,19.76
2022-10-22T01:07:17.895Z,19.77
2022-10-22T01:09:52.929Z,19.77
2022-10-22T01:12:28.195Z,19.79
2022-10-22T01:15:03.230Z,19.77
2022-10-22T01:17:34.759Z,19.79
2022-10-22T01:20:10.556Z,19.78
2022-10-22T01:22:54.933Z,19.77
2022-10-22T01:25:29.007Z,19.76
2022-10-22T01:28:14.223Z,19.76
2022-10-22T01:30:41.305Z,19.74
2022-10-22T01:33:10.317Z,19.73
2022-10-22T01:35:42.493Z,19.71
2022-10-22T01:38:14.098Z,19.70
2022-10-22T01:40:41.600Z,19.69
2022-10-22T01:43:09.043Z,19.67
2022-10-22T01:45:40.383Z,19.65
2022-10-22T01:48:25.544Z,19.64
2022-10-22T01:50:51.741Z,19.61
2022-10-22T01:53:33.128Z,19.61
2022-10-22T01:56:26.106Z,19.59
2022-10-22T01:59:02.986Z,19.56
2022-10-22T02:01:37.728Z,19.54
2022-10-22T02:04:22.814Z,19.51
2022-10-22T02:06:51.754Z,19.49
2022-10-22T02:09:20.238Z,19.48
2022-10-22T02:11:47.593Z,19.45
2022-10-22T02:14:15.955Z,19.43
2022-10-22T02:16:43.891Z,19.42
2022-10-22T02:19:19.644Z,19.40
2022-10-22T02:21:45.913Z,19.38
2022-10-22T02:24:12.293Z,19.36
2022-10-22T02:27:00.633Z,19.35
2022-10-22T02:29:30.687Z,19.33
2022-10-22T02:31:57.983Z,19.31
2022-10-22T02:34:27.404Z,19.30
2022-10-22T02:36:54.404Z,19.29
2022-10-22T02:39:21.031Z,19.27
2022-10-22T02:41:47.708Z,19.25
2022-10-22T02:44:13.997Z,19.24
2022-10-22T02:46:40.901Z,19.22
2022-10-22T02:49:07.140Z,19.20
2022-10-22T02:51:33.448Z,19.18
2022-10-22T02:53:59.900Z,19.18
2022-10-22T02:56:26.356Z,19.15
2022-10-22T02:58:52.590Z,19.14
2022-10-22T03:01:18.948Z,19.14
2022-10-22T03:03:45.331Z,19.13
2022-10-22T03:06:11.754Z,19.12
2022-10-22T03:08:38.085Z,19.12
2022-10-22T03:11:04.374Z,19.11
2022-10-22T03:13:30.770Z,19.12
2022-10-22T03:15:57.233Z,19.13
2022-10-22T03:18:23.499Z,19.13
2022-10-22T03:20:49.932Z,19.13
2022-10-22T03:23:17.733Z,19.13
2022-10-22T03:25:44.952Z,19.12
2022-10-22T03:28:14.171Z,19.13
2022-10-22T03:30:40.606Z,19.11
2022-10-22T03:33:06.879Z,19.09
2022-10-22T03:35:37.895Z,19.06
2022-10-22T03:38:04.345Z,19.04
2022-10-22T03:40:30.560Z,19.02
2022-10-22T03:42:58.254Z,18.99
2022-10-22T03:45:24.557Z,18.96
2022-10-22T03:47:51.029Z,18.95
2022-10-22T03:50:17.456Z,18.94
2022-10-22T03:52:43.678Z,18.91
2022-10-22T03:55:09.910Z,18.91
2022-10-22T03:57:36.397Z,18.90
2022-10-22T04:00:04.317Z,18.89
2022-10-22T04:02:30.556Z,18.86
2022-10-22T04:04:56.973Z,18.86
2022-10-22T04:07:23.204Z,18.83
2022-10-22T04:09:49.630Z,18.82
2022-10-22T04:12:15.959Z,18.78
2022-10-22T04:14:42.212Z,18.75
2022-10-22T04:17:08.500Z,18.72
2022-10-22T04:19:35.062Z,18.69
2022-10-22T04:22:01.907Z,18.67
2022-10-22T04:24:30.051Z,18.64
2022-10-22T04:26:56.709Z,18.63
2022-10-22T04:29:23.562Z,18.60
2022-10-22T04:31:50.081Z,18.57
2022-10-22T04:34:16.303Z,18.57
2022-10-22T04:36:42.535Z,18.53
2022-10-22T04:39:09.063Z,18.50
2022-10-22T04:41:37.327Z,18.48
2022-10-22T04:44:03.910Z,18.46
2022-10-22T04:46:31.306Z,18.44
2022-10-22T04:48:57.801Z,18.43
2022-10-22T04:51:25.261Z,18.44
2022-10-22T04:53:51.816Z,18.43
2022-10-22T04:56:20.579Z,18.44
2022-10-22T04:58:48.654Z,18.44
2022-10-22T05:01:17.289Z,18.44
2022-10-22T05:03:44.147Z,18.46
2022-10-22T05:08:43.665Z,18.47
2022-10-22T05:11:18.804Z,18.47
2022-10-22T05:13:45.066Z,18.46
2022-10-22T05:16:11.445Z,18.46
2022-10-22T05:18:38.396Z,18.44
2022-10-22T05:21:05.350Z,18.42
2022-10-22T05:23:31.781Z,18.41
2022-10-22T05:26:01.399Z,18.38
2022-10-22T05:28:27.724Z,18.36
2022-10-22T05:30:54.671Z,18.35
2022-10-22T05:33:24.059Z,18.34
2022-10-22T05:35:51.003Z,18.33
2022-10-22T05:38:17.777Z,18.34
2022-10-22T05:40:44.421Z,18.33
2022-10-22T05:43:10.828Z,18.35
2022-10-22T05:45:40.793Z,18.36
2022-10-22T05:48:07.811Z,18.37
2022-10-22T05:50:37.507Z,18.41
2022-10-22T05:53:04.326Z,18.43
2022-10-22T05:55:30.951Z,18.44
2022-10-22T05:57:57.174Z,18.48
2022-10-22T06:00:23.461Z,18.49
2022-10-22T06:02:50.522Z,18.51
2022-10-22T06:05:16.821Z,18.55
2022-10-22T06:07:43.368Z,18.54
2022-10-22T06:10:14.435Z,18.56
2022-10-22T06:12:41.105Z,18.56
2022-10-22T06:15:08.026Z,18.57
2022-10-22T06:17:34.286Z,18.57
2022-10-22T06:20:00.627Z,18.55
2022-10-22T06:22:27.159Z,18.57
2022-10-22T06:24:53.409Z,18.56
2022-10-22T06:27:19.638Z,18.55
2022-10-22T06:29:46.032Z,18.54
2022-10-22T06:32:12.450Z,18.54
2022-10-22T06:34:39.182Z,18.57
2022-10-22T06:37:05.563Z,18.57
2022-10-22T06:39:32.234Z,18.58
2022-10-22T06:41:58.519Z,18.61
2022-10-22T06:44:24.920Z,18.63
2022-10-22T06:46:52.335Z,18.66
2022-10-22T06:49:19.196Z,18.71
2022-10-22T06:51:45.662Z,18.74
2022-10-22T06:54:12.289Z,18.77
2022-10-22T06:56:38.576Z,18.80
2022-10-22T06:59:04.986Z,18.83
2022-10-22T07:01:32.797Z,18.87
2022-10-22T07:03:59.296Z,18.90
2022-10-22T07:06:26.193Z,18.94
2022-10-22T07:08:53.617Z,18.98
2022-10-22T07:11:24.128Z,19.06
2022-10-22T07:13:51.060Z,19.14
2022-10-22T07:16:17.768Z,19.23
2022-10-22T07:18:45.980Z,19.33
2022-10-22T07:21:13.277Z,19.43
2022-10-22T07:23:39.617Z,19.55
2022-10-22T07:26:09.395Z,19.64
2022-10-22T07:28:37.920Z,19.76
2022-10-22T07:31:04.211Z,19.87
2022-10-22T07:33:30.571Z,19.97
2022-10-22T07:36:00.785Z,20.07
2022-10-22T07:38:27.565Z,20.21
2022-10-22T07:40:53.843Z,20.33
2022-10-22T07:43:20.678Z,20.48
2022-10-22T07:45:46.969Z,20.64
2022-10-22T07:48:13.608Z,20.82
2022-10-22T07:50:39.971Z,20.97
2022-10-22T07:53:06.295Z,21.15
2022-10-22T07:55:32.986Z,21.28
2022-10-22T07:57:59.402Z,21.43
2022-10-22T08:00:26.044Z,21.55
2022-10-22T08:02:52.435Z,21.69
2022-10-22T08:05:18.768Z,21.79
2022-10-22T08:07:45.279Z,21.89
2022-10-22T08:10:12.327Z,21.98
2022-10-22T08:12:39.749Z,22.04
2022-10-22T08:15:06.773Z,22.10
2022-10-22T08:17:33.233Z,22.14
2022-10-22T08:19:59.525Z,22.17
2022-10-22T08:22:26.794Z,22.21
2022-10-22T08:24:53.648Z,22.24
2022-10-22T08:27:19.925Z,22.28
2022-10-22T08:29:46.164Z,22.33
2022-10-22T08:32:12.590Z,22.38
2022-10-22T08:34:41.256Z,22.42
2022-10-22T08:37:08.509Z,22.47
2022-10-22T08:39:35.285Z,22.52
2022-10-22T08:42:08.985Z,22.57
2022-10-22T08:44:55.141Z,22.63
2022-10-22T08:47:39.510Z,22.70
2022-10-22T08:50:06.424Z,22.76
2022-10-22T08:52:33.437Z,22.81
2022-10-22T08:55:01.983Z,22.87
2022-10-22T08:57:49.935Z,22.94
2022-10-22T09:00:30.770Z,23.04
2022-10-22T09:02:57.185Z,23.12
2022-10-22T09:05:41.968Z,23.21
2022-10-22T09:08:11.925Z,23.32
2022-10-22T09:10:40.654Z,23.42
2022-10-22T09:13:08.738Z,23.52
2022-10-22T09:15:34.992Z,23.63
2022-10-22T09:18:07.425Z,23.73
2022-10-22T09:20:49.682Z,23.79
2022-10-22T09:23:34.497Z,23.86
2022-10-22T09:26:01.293Z,23.90
2022-10-22T09:28:27.830Z,23.92
2022-10-22T09:30:54.254Z,23.92
2022-10-22T09:33:27.628Z,23.91
2022-10-22T09:35:55.938Z,23.89
2022-10-22T09:38:27.413Z,23.87
2022-10-22T09:40:55.104Z,23.83
2022-10-22T09:43:21.726Z,23.82
2022-10-22T09:45:49.348Z,23.76
2022-10-22T09:48:21.478Z,23.71
2022-10-22T09:50:49.218Z,23.66
2022-10-22T09:53:20.463Z,23.60
2022-10-22T09:55:51.928Z,23.54
2022-10-22T09:58:18.469Z,23.50
2022-10-22T10:00:46.291Z,23.46
2022-10-22T10:03:17.836Z,23.42
2022-10-22T10:05:47.327Z,23.39
2022-10-22T10:08:14.970Z,23.37
2022-10-22T10:10:45.573Z,23.36
2022-10-22T10:13:32.677Z,23.35
2022-10-22T10:15:58.913Z,23.34
2022-10-22T10:18:41.289Z,23.37
2022-10-22T10:23:57.833Z,23.41
2022-10-22T10:26:24.108Z,23.46
2022-10-22T10:28:56.553Z,23.53
2022-10-22T10:31:37.913Z,23.59
2022-10-22T10:34:15.715Z,23.68
2022-10-22T10:36:54.059Z,23.74
2022-10-22T10:39:27.117Z,23.78
2022-10-22T10:42:01.446Z,23.80
2022-10-22T10:44:27.838Z,23.78
2022-10-22T10:46:57.102Z,23.79
2022-10-22T10:49:25.613Z,23.77
2022-10-22T10:52:10.449Z,23.77
2022-10-22T10:54:46.501Z,23.75
2022-10-22T10:57:31.575Z,23.75
2022-10-22T11:00:07.097Z,23.74
2022-10-22T11:03:02.518Z,23.73
2022-10-22T11:05:36.126Z,23.72
2022-10-22T11:08:15.005Z,23.72
2022-10-22T11:10:47.294Z,23.70
2022-10-22T11:13:32.824Z,23.67
2022-10-22T11:16:18.074Z,23.65
2022-10-22T11:18:56.129Z,23.60
2022-10-22T11:21:29.169Z,23.59
2022-10-22T11:23:58.555Z,23.57
2022-10-22T11:26:29.302Z,23.58
2022-10-22T11:28:59.150Z,23.57
2022-10-22T11:31:25.992Z,23.60
2022-10-22T11:34:04.705Z,23.62
2022-10-22T11:36:36.828Z,23.64
2022-10-22T11:39:04.278Z,23.67
2022-10-22T11:41:32.650Z,23.68
2022-10-22T11:44:07.887Z,23.70
2022-10-22T11:46:42.896Z,23.73
2022-10-22T11:49:15.413Z,23.77
2022-10-22T11:51:42.887Z,23.82
2022-10-22T11:54:28.083Z,23.87
2022-10-22T11:57:14.638Z,23.93
2022-10-22T11:59:45.627Z,23.96
2022-10-22T12:02:30.747Z,24.02
2022-10-22T12:05:16.955Z,24.06
2022-10-22T12:07:57.313Z,24.10
2022-10-22T12:10:28.423Z,24.15
2022-10-22T12:12:58.479Z,24.18
2022-10-22T12:15:27.191Z,24.22
2022-10-22T12:17:59.055Z,24.27
2022-10-22T12:20:25.870Z,24.28
2022-10-22T12:22:52.670Z,24.31
2022-10-22T12:25:22.113Z,24.32
2022-10-22T12:27:53.319Z,24.33
2022-10-22T12:30:22.855Z,24.36
2022-10-22T12:32:52.577Z,24.38
2022-10-22T12:35:20.761Z,24.40
2022-10-22T12:37:55.291Z,24.45
2022-10-22T12:40:23.791Z,24.49
2022-10-22T12:42:55.062Z,24.54
2022-10-22T12:45:21.794Z,24.60
2022-10-22T12:47:50.905Z,24.65
2022-10-22T12:50:18.870Z,24.69
2022-10-22T12:52:45.272Z,24.73
2022-10-22T12:55:19.469Z,24.79
2022-10-22T12:57:47.462Z,24.83
2022-10-22T13:00:28.145Z,24.88
2022-10-22T13:02:54.686Z,24.90
2022-10-22T13:05:27.122Z,24.94
2022-10-22T13:07:54.868Z,24.96
2022-10-22T13:10:25.430Z,24.95
2022-10-22T13:12:55.010Z,24.95
2022-10-22T13:15:23.083Z,24.92
2022-10-22T13:17:52.587Z,24.88
2022-10-22T13:20:20.875Z,24.86
2022-10-22T13:22:54.997Z,24.83
2022-10-22T13:25:23.305Z,24.81
2022-10-22T13:27:51.995Z,24.79
2022-10-22T13:30:20.367Z,24.78
2022-10-22T13:32:53.470Z,24.76
2022-10-22T13:35:21.922Z,24.75
2022-10-22T13:37:48.215Z,24.73
2022-10-22T13:40:14.672Z,24.70
2022-10-22T13:42:41.435Z,24.67
2022-10-22T13:45:07.937Z,24.63
2022-10-22T13:47:34.297Z,24.59
2022-10-22T13:50:02.221Z,24.55
2022-10-22T13:52:35.871Z,24.53
2022-10-22T13:55:02.823Z,24.49
2022-10-22T13:57:29.157Z,24.48
2022-10-22T13:59:55.633Z,24.46
2022-10-22T14:02:24.637Z,24.45
2022-10-22T14:04:51.457Z,24.43
2022-10-22T14:07:17.853Z,24.41
2022-10-22T14:09:44.231Z,24.36
2022-10-22T14:12:15.075Z,24.32
2022-10-22T14:14:41.551Z,24.29
2022-10-22T14:17:16.792Z,24.27
2022-10-22T14:19:44.842Z,24.22
2022-10-22T14:22:20.416Z,24.19
2022-10-22T14:24:47.211Z,24.15
2022-10-22T14:27:14.741Z,24.13
2022-10-22T14:29:41.661Z,24.08
2022-10-22T14:32:15.354Z,24.05
2022-10-22T14:34:42.043Z,24.03
2022-10-22T14:37:19.210Z,24.02
2022-10-22T14:39:52.815Z,24.00
2022-10-22T14:42:20.073Z,23.98
2022-10-22T14:44:46.784Z,23.97
2022-10-22T14:47:12.988Z,23.95
2022-10-22T14:49:39.266Z,23.93
2022-10-22T14:52:05.611Z,23.92
2022-10-22T14:54:33.121Z,23.91
2022-10-22T14:56:59.397Z,23.89
2022-10-22T14:59:25.793Z,23.89
2022-10-22T15:01:52.240Z,23.88
2022-10-22T15:04:18.528Z,23.87
2022-10-22T15:06:44.782Z,23.86
2022-10-22T15:09:11.122Z,23.83
2022-10-22T15:11:37.386Z,23.81
2022-10-22T15:14:03.812Z,23.77
2022-10-22T15:16:30.441Z,23.74
2022-10-22T15:18:57.836Z,23.70
2022-10-22T15:21:24.186Z,23.65
2022-10-22T15:23:50.455Z,23.59
2022-10-22T15:26:17.188Z,23.56
2022-10-22T15:28:44.160Z,23.51
2022-10-22T15:31:12.474Z,23.46
2022-10-22T15:33:38.729Z,23.40
2022-10-22T15:36:12.487Z,23.33
2022-10-22T15:38:39.194Z,23.27
2022-10-22T15:41:06.681Z,23.20
2022-10-22T15:43:33.606Z,23.15
2022-10-22T15:46:10.315Z,23.08
2022-10-22T15:48:36.662Z,23.02
2022-10-22T15:51:07.695Z,22.96
2022-10-22T15:53:33.988Z,22.89
2022-10-22T15:56:00.258Z,22.82
2022-10-22T15:58:27.097Z,22.74
2022-10-22T16:00:53.495Z,22.68
2022-10-22T16:03:19.771Z,22.60
2022-10-22T16:05:54.559Z,22.53
2022-10-22T16:08:21.066Z,22.48
2022-10-22T16:10:48.633Z,22.44
2022-10-22T16:13:15.440Z,22.41
2022-10-22T16:15:41.666Z,22.38
2022-10-22T16:18:08.218Z,22.35
2022-10-22T16:20:38.995Z,22.32
2022-10-22T16:23:05.246Z,22.28
2022-10-22T16:25:37.075Z,22.25
2022-10-22T16:28:03.367Z,22.22
2022-10-22T16:30:29.822Z,22.17
2022-10-22T16:32:56.235Z,22.10
2022-10-22T16:35:22.656Z,22.03
2022-10-22T16:37:48.929Z,21.96
2022-10-22T16:40:15.210Z,21.87
2022-10-22T16:42:42.070Z,21.77
2022-10-22T16:45:08.826Z,21.70
2022-10-22T16:47:35.278Z,21.60
2022-10-22T16:50:01.606Z,21.50
2022-10-22T16:52:28.059Z,21.42
2022-10-22T16:54:54.539Z,21.33
2022-10-22T16:57:20.950Z,21.26
2022-10-22T16:59:47.695Z,21.19
2022-10-22T17:02:13.997Z,21.11
2022-10-22T17:04:40.431Z,21.03
2022-10-22T17:07:06.877Z,20.94
2022-10-22T17:09:33.315Z,20.88
2022-10-22T17:11:59.564Z,20.81
2022-10-22T17:14:25.933Z,20.75
2022-10-22T17:16:53.748Z,20.68
2022-10-22T17:19:20.935Z,20.63
2022-10-22T17:21:48.678Z,20.58
2022-10-22T17:24:15.013Z,20.53
2022-10-22T17:26:41.774Z,20.48
2022-10-22T17:29:07.999Z,20.43
2022-10-22T17:31:38.399Z,20.39
2022-10-22T17:34:10.291Z,20.32
2022-10-22T17:36:37.237Z,20.27
2022-10-22T17:39:07.523Z,20.21
2022-10-22T17:41:34.837Z,20.14
2022-10-22T17:44:05.487Z,20.08
2022-10-22T17:46:32.110Z,20.04
2022-10-22T17:49:12.191Z,19.99
2022-10-22T17:51:38.402Z,19.95
2022-10-22T17:54:07.438Z,19.91
2022-10-22T17:56:37.281Z,19.86
2022-10-22T17:59:04.251Z,19.82
2022-10-22T18:01:31.535Z,19.77
2022-10-22T18:04:02.634Z,19.74
2022-10-22T18:06:29.591Z,19.71
2022-10-22T18:08:56.009Z,19.67
2022-10-22T18:11:24.147Z,19.62
2022-10-22T18:13:51.353Z,19.58
2022-10-22T18:16:18.232Z,19.53
2022-10-22T18:18:51.678Z,19.48
2022-10-22T18:21:18.098Z,19.44
2022-10-22T18:23:45.153Z,19.39
2022-10-22T18:26:11.979Z,19.36
2022-10-22T18:28:38.275Z,19.31
2022-10-22T18:31:07.787Z,19.29
2022-10-22T18:33:34.826Z,19.24
2022-10-22T18:36:05.569Z,19.20
2022-10-22T18:38:32.085Z,19.17
2022-10-22T18:40:58.432Z,19.14
2022-10-22T18:43:24.891Z,19.11
2022-10-22T18:45:51.180Z,19.09
2022-10-22T18:48:18.663Z,19.05
2022-10-22T18:50:45.489Z,19.03
2022-10-22T18:53:12.754Z,19.00
2022-10-22T18:55:39.747Z,18.98
2022-10-22T18:58:06.135Z,18.96
2022-10-22T19:00:32.841Z,18.93
2022-10-22T19:02:59.168Z,18.91
2022-10-22T19:05:25.552Z,18.89
2022-10-22T19:07:51.784Z,18.86
2022-10-22T19:12:45.872Z,18.81
2022-10-22T19:15:12.463Z,18.79
2022-10-22T19:17:38.719Z,18.78
2022-10-22T19:20:05.655Z,18.76
2022-10-22T19:22:32.472Z,18.74
2022-10-22T19:24:58.811Z,18.73
2022-10-22T19:27:25.150Z,18.70
2022-10-22T19:29:51.652Z,18.68
2022-10-22T19:32:19.927Z,18.66
2022-10-22T19:34:46.644Z,18.64
2022-10-22T19:37:12.929Z,18.63
2022-10-22T19:39:39.244Z,18.63
2022-10-22T19:42:05.947Z,18.62
2022-10-22T19:44:32.205Z,18.62
2022-10-22T19:46:58.496Z,18.61
2022-10-22T19:49:24.980Z,18.59
2022-10-22T19:51:51.270Z,18.58
2022-10-22T19:54:21.136Z,18.57
2022-10-22T19:56:47.968Z,18.55
2022-10-22T19:59:15.132Z,18.54
2022-10-22T20:01:41.447Z,18.51
2022-10-22T20:04:07.723Z,18.50
2022-10-22T20:06:34.225Z,18.50
2022-10-22T20:09:00.732Z,18.50
2022-10-22T20:11:28.893Z,18.48
2022-10-22T20:13:56.732Z,18.49
2022-10-22T20:16:24.405Z,18.49
2022-10-22T20:18:51.568Z,18.49
2022-10-22T20:21:19.441Z,18.50
2022-10-22T20:23:46.466Z,18.49
2022-10-22T20:26:13.374Z,18.49
2022-10-22T20:28:39.649Z,18.49
2022-10-22T20:31:14.697Z,18.48
2022-10-22T20:33:40.973Z,18.48
2022-10-22T20:36:08.938Z,18.47
2022-10-22T20:41:08.304Z,18.45
2022-10-22T20:43:34.596Z,18.44
2022-10-22T20:46:00.892Z,18.45
2022-10-22T20:48:31.415Z,18.44
2022-10-22T20:50:58.548Z,18.43
2022-10-22T20:53:25.042Z,18.42
2022-10-22T20:55:53.251Z,18.40
2022-10-22T20:58:20.705Z,18.37
2022-10-22T21:00:49.267Z,18.37
2022-10-22T21:03:15.528Z,18.37
2022-10-22T21:05:41.983Z,18.35
2022-10-22T21:08:08.300Z,18.35
2022-10-22T21:10:34.577Z,18.35
2022-10-22T21:13:00.895Z,18.36
2022-10-22T21:15:27.486Z,18.36
2022-10-22T21:17:55.026Z,18.37
2022-10-22T21:20:24.548Z,18.36
2022-10-22T21:22:51.851Z,18.38
2022-10-22T21:25:18.265Z,18.37
2022-10-22T21:27:44.547Z,18.37
2022-10-22T21:30:10.985Z,18.38
2022-10-22T21:32:38.414Z,18.39
2022-10-22T21:35:05.011Z,18.39
2022-10-22T21:37:33.443Z,18.39
2022-10-22T21:40:00.563Z,18.37
2022-10-22T21:42:26.841Z,18.38
2022-10-22T21:44:53.217Z,18.39
2022-10-22T21:47:19.572Z,18.37
2022-10-22T21:49:46.892Z,18.38
2022-10-22T21:52:13.163Z,18.39
2022-10-22T21:54:39.939Z,18.39
2022-10-22T21:57:06.767Z,18.41
2022-10-22T21:59:34.959Z,18.42
2022-10-22T22:02:04.952Z,18.41
2022-10-22T22:04:32.513Z,18.42
2022-10-22T22:06:58.788Z,18.42
2022-10-22T22:09:25.227Z,18.44
2022-10-22T22:11:51.527Z,18.45
2022-10-22T22:14:17.785Z,18.43
2022-10-22T22:16:44.047Z,18.44
2022-10-22T22:19:10.916Z,18.46
2022-10-22T22:21:39.270Z,18.47
2022-10-22T22:24:06.531Z,18.45
2022-10-22T22:26:32.863Z,18.45
2022-10-22T22:28:59.856Z,18.45
2022-10-22T22:31:27.771Z,18.46
2022-10-22T22:33:58.047Z,18.46
2022-10-22T22:36:24.324Z,18.45
2022-10-22T22:38:53.970Z,18.45
2022-10-22T22:41:20.250Z,18.45
2022-10-22T22:43:46.694Z,18.44
2022-10-22T22:46:13.065Z,18.43
2022-10-22T22:48:39.408Z,18.41
2022-10-22T22:51:07.247Z,18.41
2022-10-22T22:53:34.830Z,18.41
2022-10-22T22:56:13.312Z,18.40
2022-10-22T22:58:40.569Z,18.40
2022-10-22T23:01:17.718Z,18.38
2022-10-22T23:03:45.581Z,18.39
2022-10-22T23:06:12.243Z,18.37
2022-10-22T23:08:38.680Z,18.37
2022-10-22T23:11:09.932Z,18.35
2022-10-22T23:13:37.042Z,18.33
2022-10-22T23:16:07.618Z,18.31
2022-10-22T23:18:35.106Z,18.30
2022-10-22T23:21:11.321Z,18.29
2022-10-22T23:23:37.596Z,18.27
2022-10-22T23:26:04.191Z,18.25
2022-10-22T23:28:30.777Z,18.24
2022-10-22T23:30:57.081Z,18.23
2022-10-22T23:33:23.526Z,18.22
2022-10-22T23:35:49.795Z,18.21
2022-10-22T23:38:16.226Z,18.20
2022-10-22T23:40:42.511Z,18.20
2022-10-22T23:43:09.037Z,18.19
2022-10-22T23:45:35.372Z,18.18
2022-10-22T23:48:01.682Z,18.16
2022-10-22T23:50:28.016Z,18.15
2022-10-22T23:52:54.442Z,18.13
2022-10-22T23:55:23.140Z,18.12
2022-10-22T23:57:50.594Z,18.11
